createdAt,value
2023-02-28T00:00:36.967Z,102801.63
2023-02-28T00:01:37.405Z,102801.91
2023-02-28T00:02:37.674Z,102801.38
2023-02-28T00:03:38.493Z,102800.28
2023-02-28T00:04:38.958Z,102800.42
2023-02-28T00:05:39.278Z,102799.56
2023-02-28T00:06:39.692Z,102799.57
2023-02-28T00:07:40.047Z,102799.11
2023-02-28T00:08:40.703Z,102798.75
2023-02-28T00:09:41.016Z,102797.90
2023-02-28T00:10:41.804Z,102797.38
2023-02-28T00:11:42.905Z,102797.16
2023-02-28T00:12:43.230Z,102796.55
2023-02-28T00:13:43.823Z,102796.52
2023-02-28T00:14:45.307Z,102796.07
2023-02-28T00:15:44.860Z,102795.92
2023-02-28T00:16:45.181Z,102795.57
2023-02-28T00:17:45.704Z,102794.75
2023-02-28T00:18:45.672Z,102794.47
2023-02-28T00:19:46.083Z,102793.92
2023-02-28T00:20:46.357Z,102793.80
2023-02-28T00:21:46.533Z,102792.82
2023-02-28T00:22:46.722Z,102792.70
2023-02-28T00:23:47.117Z,102792.13
2023-02-28T00:23:55.760Z,102795.17
2023-02-28T00:24:56.623Z,102786.61
2023-02-28T00:25:57.202Z,102786.84
2023-02-28T00:26:57.765Z,102786.34
2023-02-28T00:27:58.176Z,102786.14
2023-02-28T00:28:58.564Z,102786.72
2023-02-28T00:29:58.814Z,102786.45
2023-02-28T00:30:59.098Z,102786.26
2023-02-28T00:31:59.080Z,102785.56
2023-02-28T00:32:59.433Z,102785.71
2023-02-28T00:33:59.718Z,102784.83
2023-02-28T00:35:00.112Z,102784.43
2023-02-28T00:36:01.007Z,102784.48
2023-02-28T00:37:01.055Z,102784.48
2023-02-28T00:38:01.944Z,102784.27
2023-02-28T00:39:02.732Z,102783.81
2023-02-28T00:40:03.360Z,102783.42
2023-02-28T00:41:03.655Z,102783.37
2023-02-28T00:42:03.716Z,102783.24
2023-02-28T00:43:04.481Z,102783.19
2023-02-28T00:44:05.025Z,102782.73
2023-02-28T00:45:05.250Z,102782.60
2023-02-28T00:46:05.770Z,102782.31
2023-02-28T00:47:06.026Z,102782.78
2023-02-28T00:48:06.821Z,102782.33
2023-02-28T00:49:07.422Z,102782.16
2023-02-28T00:50:07.893Z,102782.04
2023-02-28T00:51:08.342Z,102781.52
2023-02-28T00:52:08.825Z,102781.48
2023-02-28T00:53:09.487Z,102781.52
2023-02-28T00:54:10.358Z,102781.50
2023-02-28T00:55:10.566Z,102781.05
2023-02-28T00:56:11.004Z,102781.31
2023-02-28T00:57:11.286Z,102781.38
2023-02-28T00:57:21.965Z,102789.05
2023-02-28T00:58:22.823Z,102778.52
2023-02-28T00:59:22.927Z,102778.28
2023-02-28T01:00:23.768Z,102778.78
2023-02-28T01:01:24.693Z,102778.52
2023-02-28T01:02:24.914Z,102779.02
2023-02-28T01:03:25.598Z,102779.41
2023-02-28T01:04:26.375Z,102779.91
2023-02-28T01:05:26.309Z,102780.24
2023-02-28T01:06:26.430Z,102780.31
2023-02-28T01:07:27.360Z,102780.78
2023-02-28T01:08:28.116Z,102780.82
2023-02-28T01:09:28.843Z,102780.95
2023-02-28T01:10:29.366Z,102781.66
2023-02-28T01:11:30.116Z,102781.30
2023-02-28T01:12:31.137Z,102781.27
2023-02-28T01:13:31.142Z,102781.87
2023-02-28T01:14:31.402Z,102781.47
2023-02-28T01:15:31.816Z,102780.84
2023-02-28T01:16:32.145Z,102780.81
2023-02-28T01:17:32.341Z,102780.16
2023-02-28T01:18:32.713Z,102780.36
2023-02-28T01:19:33.352Z,102779.73
2023-02-28T01:20:33.721Z,102779.23
2023-02-28T01:21:34.060Z,102778.68
2023-02-28T01:22:34.392Z,102778.05
2023-02-28T01:23:34.991Z,102777.89
2023-02-28T01:24:35.375Z,102777.00
2023-02-28T01:25:35.832Z,102776.67
2023-02-28T01:26:36.158Z,102775.84
2023-02-28T01:27:36.339Z,102775.11
2023-02-28T01:28:36.985Z,102775.02
2023-02-28T01:29:37.649Z,102773.80
2023-02-28T01:30:38.288Z,102773.30
2023-02-28T01:31:38.442Z,102772.08
2023-02-28T01:32:38.955Z,102771.58
2023-02-28T01:32:47.606Z,102767.84
2023-02-28T01:33:47.953Z,102752.88
2023-02-28T01:34:48.359Z,102753.38
2023-02-28T01:35:49.076Z,102753.38
2023-02-28T01:36:50.039Z,102754.43
2023-02-28T01:37:50.173Z,102754.73
2023-02-28T01:38:50.907Z,102755.06
2023-02-28T01:39:51.454Z,102755.39
2023-02-28T01:40:52.004Z,102755.20
2023-02-28T01:41:52.634Z,102755.86
2023-02-28T01:42:53.550Z,102756.16
2023-02-28T01:43:54.240Z,102756.66
2023-02-28T01:44:54.441Z,102756.39
2023-02-28T01:45:54.808Z,102757.22
2023-02-28T01:46:55.487Z,102757.66
2023-02-28T01:47:56.104Z,102757.22
2023-02-28T01:48:56.759Z,102757.78
2023-02-28T01:49:57.176Z,102758.18
2023-02-28T01:50:57.634Z,102758.02
2023-02-28T01:51:58.508Z,102758.08
2023-02-28T01:52:59.100Z,102758.05
2023-02-28T01:53:59.961Z,102757.72
2023-02-28T01:55:00.173Z,102757.45
2023-02-28T01:56:01.045Z,102757.58
2023-02-28T01:57:01.792Z,102757.42
2023-02-28T01:58:02.240Z,102757.05
2023-02-28T01:59:02.988Z,102757.16
2023-02-28T02:00:03.325Z,102757.22
2023-02-28T02:01:03.599Z,102756.45
2023-02-28T02:02:04.433Z,102756.02
2023-02-28T02:03:05.214Z,102756.28
2023-02-28T02:04:05.684Z,102755.52
2023-02-28T02:05:06.406Z,102755.09
2023-02-28T02:05:15.095Z,102769.63
2023-02-28T02:06:15.095Z,102748.66
2023-02-28T02:07:15.373Z,102748.72
2023-02-28T02:08:16.019Z,102749.12
2023-02-28T02:09:16.847Z,102749.52
2023-02-28T02:10:17.771Z,102749.45
2023-02-28T02:11:18.523Z,102749.02
2023-02-28T02:12:19.362Z,102749.25
2023-02-28T02:13:20.333Z,102748.81
2023-02-28T02:14:20.889Z,102748.66
2023-02-28T02:15:21.275Z,102748.48
2023-02-28T02:16:21.825Z,102747.98
2023-02-28T02:17:22.264Z,102747.72
2023-02-28T02:18:22.875Z,102747.45
2023-02-28T02:19:23.116Z,102747.36
2023-02-28T02:20:23.898Z,102747.12
2023-02-28T02:21:24.449Z,102746.42
2023-02-28T02:22:24.587Z,102746.00
2023-02-28T02:23:25.138Z,102745.44
2023-02-28T02:24:25.670Z,102744.94
2023-02-28T02:25:26.458Z,102744.67
2023-02-28T02:26:26.531Z,102744.14
2023-02-28T02:27:27.258Z,102743.24
2023-02-28T02:28:27.857Z,102742.31
2023-02-28T02:29:28.078Z,102741.55
2023-02-28T02:30:28.817Z,102741.31
2023-02-28T02:31:29.265Z,102740.55
2023-02-28T02:32:28.867Z,102739.95
2023-02-28T02:33:29.567Z,102740.29
2023-02-28T02:34:30.217Z,102740.29
2023-02-28T02:35:30.378Z,102740.45
2023-02-28T02:36:31.185Z,102740.35
2023-02-28T02:36:40.340Z,102748.52
2023-02-28T02:37:40.743Z,102740.55
2023-02-28T02:38:40.849Z,102740.12
2023-02-28T02:39:41.291Z,102740.29
2023-02-28T02:40:42.169Z,102740.02
2023-02-28T02:41:42.640Z,102740.19
2023-02-28T02:42:42.991Z,102740.12
2023-02-28T02:43:43.535Z,102739.52
2023-02-28T02:44:43.888Z,102738.59
2023-02-28T02:45:44.237Z,102738.49
2023-02-28T02:46:44.877Z,102737.93
2023-02-28T02:47:45.205Z,102737.56
2023-02-28T02:48:46.063Z,102736.97
2023-02-28T02:49:46.433Z,102736.50
2023-02-28T02:50:46.828Z,102736.03
2023-02-28T02:51:47.658Z,102735.73
2023-02-28T02:52:48.376Z,102735.83
2023-02-28T02:53:48.777Z,102735.53
2023-02-28T02:54:49.721Z,102734.80
2023-02-28T02:55:50.198Z,102734.66
2023-02-28T02:56:51.074Z,102734.59
2023-02-28T02:57:51.766Z,102734.36
2023-02-28T02:58:52.504Z,102734.49
2023-02-28T02:59:53.141Z,102734.75
2023-02-28T03:00:53.089Z,102734.95
2023-02-28T03:01:53.787Z,102735.05
2023-02-28T03:02:54.341Z,102734.75
2023-02-28T03:03:54.955Z,102735.00
2023-02-28T03:04:55.383Z,102735.77
2023-02-28T03:05:55.730Z,102735.69
2023-02-28T03:06:56.078Z,102735.55
2023-02-28T03:07:56.565Z,102735.88
2023-02-28T03:08:57.000Z,102735.98
2023-02-28T03:09:57.577Z,102735.67
2023-02-28T03:10:06.218Z,102747.34
2023-02-28T03:11:06.928Z,102735.05
2023-02-28T03:12:07.266Z,102734.81
2023-02-28T03:13:07.478Z,102734.71
2023-02-28T03:14:07.940Z,102734.55
2023-02-28T03:15:08.222Z,102734.55
2023-02-28T03:16:08.534Z,102733.89
2023-02-28T03:17:08.885Z,102734.31
2023-02-28T03:18:09.245Z,102733.89
2023-02-28T03:19:09.479Z,102733.81
2023-02-28T03:20:09.819Z,102733.22
2023-02-28T03:21:10.242Z,102732.79
2023-02-28T03:22:10.527Z,102732.03
2023-02-28T03:23:10.931Z,102731.69
2023-02-28T03:24:11.244Z,102731.42
2023-02-28T03:25:11.758Z,102731.06
2023-02-28T03:26:12.298Z,102730.52
2023-02-28T03:27:12.721Z,102730.09
2023-02-28T03:28:13.589Z,102729.66
2023-02-28T03:29:13.922Z,102729.39
2023-02-28T03:30:14.217Z,102729.52
2023-02-28T03:31:14.755Z,102729.02
2023-02-28T03:32:18.536Z,102728.49
2023-02-28T03:33:15.776Z,102728.26
2023-02-28T03:34:16.047Z,102727.83
2023-02-28T03:35:16.297Z,102727.83
2023-02-28T03:36:16.643Z,102727.89
2023-02-28T03:37:16.897Z,102728.06
2023-02-28T03:38:17.146Z,102728.13
2023-02-28T03:39:17.432Z,102727.95
2023-02-28T03:40:17.756Z,102727.56
2023-02-28T03:41:18.100Z,102727.39
2023-02-28T03:41:27.257Z,102738.61
2023-02-28T03:42:26.926Z,102728.14
2023-02-28T03:43:27.394Z,102727.70
2023-02-28T03:44:27.758Z,102727.48
2023-02-28T03:45:28.226Z,102727.58
2023-02-28T03:46:28.443Z,102727.25
2023-02-28T03:47:28.729Z,102727.64
2023-02-28T03:48:29.041Z,102727.31
2023-02-28T03:49:29.288Z,102727.08
2023-02-28T03:50:29.492Z,102726.81
2023-02-28T03:51:30.372Z,102727.31
2023-02-28T03:52:30.256Z,102726.64
2023-02-28T03:53:30.363Z,102726.81
2023-02-28T03:54:30.495Z,102726.45
2023-02-28T03:55:30.910Z,102726.38
2023-02-28T03:56:31.040Z,102726.45
2023-02-28T03:57:31.339Z,102726.18
2023-02-28T03:58:31.750Z,102726.24
2023-02-28T03:59:32.478Z,102726.58
2023-02-28T04:00:32.781Z,102726.51
2023-02-28T04:01:33.356Z,102726.73
2023-02-28T04:02:33.556Z,102726.80
2023-02-28T04:03:33.875Z,102727.07
2023-02-28T04:04:34.342Z,102727.30
2023-02-28T04:05:34.666Z,102727.53
2023-02-28T04:06:34.997Z,102727.92
2023-02-28T04:07:35.254Z,102727.92
2023-02-28T04:08:35.473Z,102728.06
2023-02-28T04:09:35.861Z,102728.16
2023-02-28T04:10:36.369Z,102728.45
2023-02-28T04:11:36.613Z,102728.67
2023-02-28T04:12:37.043Z,102728.74
2023-02-28T04:12:45.698Z,102740.95
2023-02-28T04:13:47.509Z,102733.95
2023-02-28T04:14:46.807Z,102733.36
2023-02-28T04:15:47.008Z,102733.09
2023-02-28T04:16:47.100Z,102732.59
2023-02-28T04:17:47.327Z,102732.77
2023-02-28T04:18:47.428Z,102732.39
2023-02-28T04:19:47.861Z,102731.89
2023-02-28T04:20:48.431Z,102731.96
2023-02-28T04:21:48.633Z,102731.80
2023-02-28T04:22:48.949Z,102731.52
2023-02-28T04:23:49.339Z,102730.92
2023-02-28T04:24:49.984Z,102730.59
2023-02-28T04:25:50.242Z,102730.73
2023-02-28T04:26:50.466Z,102730.72
2023-02-28T04:27:50.706Z,102730.63
2023-02-28T04:28:50.829Z,102730.31
2023-02-28T04:29:51.349Z,102730.22
2023-02-28T04:30:51.524Z,102730.17
2023-02-28T04:31:52.168Z,102730.08
2023-02-28T04:32:52.473Z,102730.03
2023-02-28T04:33:52.969Z,102729.83
2023-02-28T04:34:53.374Z,102729.86
2023-02-28T04:35:53.836Z,102729.76
2023-02-28T04:37:06.391Z,102729.75
2023-02-28T04:37:54.508Z,102730.05
2023-02-28T04:38:54.760Z,102730.44
2023-02-28T04:39:55.053Z,102730.73
2023-02-28T04:40:55.195Z,102731.13
2023-02-28T04:41:55.602Z,102730.92
2023-02-28T04:42:55.902Z,102731.31
2023-02-28T04:43:56.219Z,102731.05
2023-02-28T04:44:56.515Z,102730.78
2023-02-28T04:45:06.692Z,102749.22
2023-02-28T04:46:07.096Z,102736.06
2023-02-28T04:47:07.423Z,102735.46
2023-02-28T04:48:07.589Z,102735.80
2023-02-28T04:49:07.982Z,102735.40
2023-02-28T04:50:08.279Z,102734.86
2023-02-28T04:51:08.599Z,102735.03
2023-02-28T04:52:08.907Z,102734.93
2023-02-28T04:53:09.450Z,102735.09
2023-02-28T04:54:09.857Z,102735.42
2023-02-28T04:55:10.335Z,102735.76
2023-02-28T04:56:11.030Z,102736.02
2023-02-28T04:57:11.705Z,102736.25
2023-02-28T04:58:12.163Z,102736.15
2023-02-28T04:59:12.536Z,102736.08
2023-02-28T05:00:12.926Z,102736.41
2023-02-28T05:01:13.412Z,102737.23
2023-02-28T05:02:14.161Z,102737.57
2023-02-28T05:03:14.319Z,102737.91
2023-02-28T05:04:14.529Z,102738.14
2023-02-28T05:05:14.861Z,102738.90
2023-02-28T05:06:15.428Z,102739.06
2023-02-28T05:07:15.422Z,102740.16
2023-02-28T05:08:15.772Z,102740.82
2023-02-28T05:09:16.024Z,102741.05
2023-02-28T05:10:16.168Z,102741.55
2023-02-28T05:11:16.305Z,102742.44
2023-02-28T05:12:16.565Z,102742.67
2023-02-28T05:13:16.952Z,102743.00
2023-02-28T05:14:17.184Z,102743.49
2023-02-28T05:15:17.438Z,102743.95
2023-02-28T05:16:17.684Z,102744.52
2023-02-28T05:16:26.251Z,102766.89
2023-02-28T05:17:26.495Z,102752.71
2023-02-28T05:18:26.843Z,102752.38
2023-02-28T05:19:28.078Z,102752.48
2023-02-28T05:20:28.426Z,102752.48
2023-02-28T05:21:29.421Z,102752.65
2023-02-28T05:22:29.356Z,102752.81
2023-02-28T05:23:30.002Z,102753.14
2023-02-28T05:24:30.502Z,102753.64
2023-02-28T05:25:30.873Z,102753.38
2023-02-28T05:26:31.228Z,102753.44
2023-02-28T05:27:31.530Z,102753.59
2023-02-28T05:28:32.178Z,102753.73
2023-02-28T05:29:32.620Z,102753.99
2023-02-28T05:30:32.984Z,102754.05
2023-02-28T05:31:34.992Z,102754.22
2023-02-28T05:32:34.323Z,102754.12
2023-02-28T05:33:34.687Z,102754.69
2023-02-28T05:34:35.185Z,102754.84
2023-02-28T05:35:35.920Z,102755.57
2023-02-28T05:36:36.267Z,102755.73
2023-02-28T05:37:36.822Z,102755.96
2023-02-28T05:38:38.861Z,102755.92
2023-02-28T05:39:37.444Z,102755.98
2023-02-28T05:40:37.849Z,102756.22
2023-02-28T05:41:38.474Z,102756.77
2023-02-28T05:42:38.875Z,102757.06
2023-02-28T05:43:39.234Z,102756.86
2023-02-28T05:44:39.579Z,102756.75
2023-02-28T05:45:40.213Z,102756.81
2023-02-28T05:46:40.656Z,102757.27
2023-02-28T05:46:49.314Z,102777.33
2023-02-28T05:47:49.699Z,102761.25
2023-02-28T05:48:50.386Z,102761.41
2023-02-28T05:49:50.826Z,102761.48
2023-02-28T05:50:51.000Z,102761.31
2023-02-28T05:51:51.515Z,102761.11
2023-02-28T05:52:51.932Z,102760.94
2023-02-28T05:53:52.309Z,102760.73
2023-02-28T05:54:52.907Z,102760.73
2023-02-28T05:55:53.666Z,102760.70
2023-02-28T05:56:54.422Z,102760.46
2023-02-28T05:57:54.868Z,102760.19
2023-02-28T05:58:55.702Z,102760.59
2023-02-28T05:59:56.305Z,102760.66
2023-02-28T06:00:56.812Z,102760.75
2023-02-28T06:01:57.723Z,102761.08
2023-02-28T06:02:58.805Z,102761.05
2023-02-28T06:03:59.585Z,102761.44
2023-02-28T06:05:00.202Z,102761.20
2023-02-28T06:06:00.887Z,102761.27
2023-02-28T06:07:00.925Z,102761.77
2023-02-28T06:08:01.325Z,102761.73
2023-02-28T06:09:01.788Z,102761.89
2023-02-28T06:10:02.117Z,102762.28
2023-02-28T06:11:02.399Z,102762.55
2023-02-28T06:12:03.243Z,102762.84
2023-02-28T06:13:04.022Z,102763.23
2023-02-28T06:14:04.624Z,102763.42
2023-02-28T06:15:04.961Z,102763.81
2023-02-28T06:16:05.211Z,102764.99
2023-02-28T06:17:05.694Z,102764.78
2023-02-28T06:18:05.881Z,102765.36
2023-02-28T06:18:17.618Z,102789.73
2023-02-28T06:19:17.667Z,102766.77
2023-02-28T06:20:18.410Z,102767.00
2023-02-28T06:21:18.784Z,102766.83
2023-02-28T06:22:19.040Z,102767.28
2023-02-28T06:23:19.275Z,102767.78
2023-02-28T06:24:19.664Z,102767.95
2023-02-28T06:25:20.025Z,102768.05
2023-02-28T06:26:20.274Z,102768.21
2023-02-28T06:27:20.873Z,102768.44
2023-02-28T06:28:21.212Z,102768.55
2023-02-28T06:29:21.568Z,102768.91
2023-02-28T06:30:21.978Z,102769.08
2023-02-28T06:31:22.157Z,102769.69
2023-02-28T06:32:22.572Z,102770.16
2023-02-28T06:33:23.145Z,102770.66
2023-02-28T06:34:23.721Z,102771.16
2023-02-28T06:35:24.504Z,102771.42
2023-02-28T06:36:24.869Z,102772.41
2023-02-28T06:37:25.402Z,102772.45
2023-02-28T06:38:25.861Z,102773.05
2023-02-28T06:39:26.185Z,102773.39
2023-02-28T06:40:26.713Z,102773.92
2023-02-28T06:41:28.014Z,102774.86
2023-02-28T06:42:27.839Z,102774.96
2023-02-28T06:43:28.302Z,102775.77
2023-02-28T06:44:28.599Z,102776.08
2023-02-28T06:45:29.939Z,102776.39
2023-02-28T06:46:29.496Z,102776.53
2023-02-28T06:47:29.989Z,102776.84
2023-02-28T06:48:30.311Z,102776.83
2023-02-28T06:49:30.541Z,102777.14
2023-02-28T06:49:45.902Z,102797.65
2023-02-28T06:50:46.364Z,102782.84
2023-02-28T06:51:46.797Z,102782.61
2023-02-28T06:52:47.104Z,102782.51
2023-02-28T06:53:47.378Z,102782.87
2023-02-28T06:54:48.833Z,102783.31
2023-02-28T06:55:48.044Z,102783.48
2023-02-28T06:56:48.959Z,102784.18
2023-02-28T06:57:49.840Z,102784.62
2023-02-28T06:58:50.184Z,102785.48
2023-02-28T06:59:50.546Z,102785.86
2023-02-28T07:00:50.939Z,102786.06
2023-02-28T07:01:51.412Z,102786.77
2023-02-28T07:02:51.615Z,102786.91
2023-02-28T07:03:51.821Z,102787.88
2023-02-28T07:04:52.638Z,102788.45
2023-02-28T07:05:53.015Z,102788.54
2023-02-28T07:06:53.442Z,102789.12
2023-02-28T07:07:53.812Z,102789.20
2023-02-28T07:08:54.150Z,102790.01
2023-02-28T07:09:54.542Z,102790.42
2023-02-28T07:10:54.876Z,102790.83
2023-02-28T07:11:55.260Z,102790.64
2023-02-28T07:12:56.068Z,102790.89
2023-02-28T07:13:56.477Z,102791.46
2023-02-28T07:14:56.999Z,102791.77
2023-02-28T07:15:57.508Z,102792.41
2023-02-28T07:16:57.662Z,102792.72
2023-02-28T07:17:58.029Z,102792.86
2023-02-28T07:18:58.064Z,102792.94
2023-02-28T07:19:58.479Z,102794.14
2023-02-28T07:20:59.146Z,102794.23
2023-02-28T07:21:10.338Z,102820.04
2023-02-28T07:22:10.128Z,102799.48
2023-02-28T07:23:10.850Z,102799.92
2023-02-28T07:24:11.528Z,102799.80
2023-02-28T07:25:12.192Z,102800.10
2023-02-28T07:26:12.462Z,102800.14
2023-02-28T07:27:12.688Z,102800.05
2023-02-28T07:28:13.401Z,102800.63
2023-02-28T07:29:13.569Z,102800.77
2023-02-28T07:30:14.050Z,102801.25
2023-02-28T07:31:14.438Z,102801.20
2023-02-28T07:32:14.622Z,102801.94
2023-02-28T07:33:14.940Z,102801.69
2023-02-28T07:34:15.029Z,102802.63
2023-02-28T07:35:15.676Z,102803.14
2023-02-28T07:36:15.910Z,102803.48
2023-02-28T07:37:16.668Z,102804.27
2023-02-28T07:38:17.081Z,102805.14
2023-02-28T07:39:17.302Z,102805.72
2023-02-28T07:40:17.795Z,102806.23
2023-02-28T07:41:18.558Z,102806.70
2023-02-28T07:42:19.434Z,102807.61
2023-02-28T07:43:19.907Z,102807.58
2023-02-28T07:44:20.269Z,102808.42
2023-02-28T07:45:20.668Z,102808.33
2023-02-28T07:46:21.150Z,102808.57
2023-02-28T07:47:21.386Z,102809.47
2023-02-28T07:48:21.892Z,102810.11
2023-02-28T07:49:22.458Z,102811.08
2023-02-28T07:50:23.032Z,102811.48
2023-02-28T07:51:23.145Z,102812.06
2023-02-28T07:52:23.641Z,102813.23
2023-02-28T07:52:33.516Z,102837.73
2023-02-28T07:53:34.276Z,102826.41
2023-02-28T07:54:35.110Z,102826.05
2023-02-28T07:55:41.385Z,102826.37
2023-02-28T07:56:36.246Z,102826.55
2023-02-28T07:57:36.489Z,102826.91
2023-02-28T07:58:37.416Z,102827.52
2023-02-28T07:59:37.767Z,102828.20
2023-02-28T08:00:38.720Z,102828.41
2023-02-28T08:01:38.962Z,102828.84
2023-02-28T08:02:39.383Z,102829.81
2023-02-28T08:03:40.412Z,102830.52
2023-02-28T08:04:40.984Z,102831.14
2023-02-28T08:05:41.248Z,102832.67
2023-02-28T08:06:41.317Z,102833.37
2023-02-28T08:07:41.849Z,102834.11
2023-02-28T08:08:42.206Z,102834.94
2023-02-28T08:09:42.266Z,102835.24
2023-02-28T08:10:42.300Z,102835.71
2023-02-28T08:11:42.744Z,102836.58
2023-02-28T08:12:43.225Z,102837.14
2023-02-28T08:13:43.883Z,102838.05
2023-02-28T08:14:44.250Z,102838.95
2023-02-28T08:15:44.717Z,102839.28
2023-02-28T08:16:45.212Z,102839.45
2023-02-28T08:17:45.509Z,102840.52
2023-02-28T08:18:46.063Z,102840.89
2023-02-28T08:19:46.342Z,102840.92
2023-02-28T08:20:47.243Z,102841.09
2023-02-28T08:20:56.142Z,102860.83
2023-02-28T08:21:56.796Z,102849.37
2023-02-28T08:22:57.264Z,102849.37
2023-02-28T08:23:57.667Z,102849.60
2023-02-28T08:24:58.154Z,102849.53
2023-02-28T08:25:58.603Z,102850.03
2023-02-28T08:26:59.142Z,102850.56
2023-02-28T08:27:59.638Z,102851.43
2023-02-28T08:29:01.353Z,102851.86
2023-02-28T08:30:00.053Z,102851.83
2023-02-28T08:31:00.656Z,102852.38
2023-02-28T08:32:01.771Z,102853.08
2023-02-28T08:33:02.530Z,102853.78
2023-02-28T08:34:02.901Z,102854.24
2023-02-28T08:35:03.603Z,102854.80
2023-02-28T08:36:04.589Z,102855.36
2023-02-28T08:37:05.097Z,102856.20
2023-02-28T08:38:05.602Z,102856.16
2023-02-28T08:39:06.398Z,102856.48
2023-02-28T08:40:06.798Z,102856.25
2023-02-28T08:41:07.565Z,102856.50
2023-02-28T08:42:08.331Z,102856.80
2023-02-28T08:43:08.700Z,102856.92
2023-02-28T08:44:09.240Z,102856.71
2023-02-28T08:45:09.866Z,102856.66
2023-02-28T08:46:10.414Z,102856.45
2023-02-28T08:47:11.314Z,102857.04
2023-02-28T08:48:11.355Z,102857.76
2023-02-28T08:49:11.681Z,102858.11
2023-02-28T08:50:12.347Z,102858.47
2023-02-28T08:51:12.897Z,102859.52
2023-02-28T08:51:21.621Z,102876.28
2023-02-28T08:52:21.925Z,102864.95
2023-02-28T08:53:22.698Z,102864.95
2023-02-28T08:54:23.283Z,102865.38
2023-02-28T08:55:23.985Z,102865.38
2023-02-28T08:56:24.952Z,102865.68
2023-02-28T08:57:25.509Z,102865.80
2023-02-28T08:58:26.280Z,102865.64
2023-02-28T08:59:27.013Z,102865.95
2023-02-28T09:00:26.823Z,102866.29
2023-02-28T09:01:27.329Z,102866.66
2023-02-28T09:02:28.084Z,102866.70
2023-02-28T09:03:28.851Z,102867.15
2023-02-28T09:04:29.668Z,102866.69
2023-02-28T09:05:30.495Z,102866.16
2023-02-28T09:06:31.160Z,102866.40
2023-02-28T09:07:31.319Z,102866.09
2023-02-28T09:08:31.672Z,102866.11
2023-02-28T09:09:32.380Z,102865.78
2023-02-28T09:10:33.170Z,102866.19
2023-02-28T09:11:33.592Z,102866.19
2023-02-28T09:12:34.195Z,102866.33
2023-02-28T09:13:34.882Z,102866.26
2023-02-28T09:14:35.180Z,102866.23
2023-02-28T09:15:35.741Z,102866.72
2023-02-28T09:16:37.162Z,102866.41
2023-02-28T09:17:37.691Z,102866.44
2023-02-28T09:18:38.276Z,102867.25
2023-02-28T09:19:39.059Z,102867.74
2023-02-28T09:20:39.935Z,102868.09
2023-02-28T09:21:40.842Z,102868.25
2023-02-28T09:22:41.573Z,102868.42
2023-02-28T09:22:50.241Z,102866.84
2023-02-28T09:23:50.539Z,102867.19
2023-02-28T09:24:50.817Z,102867.52
2023-02-28T09:25:51.250Z,102867.13
2023-02-28T09:27:03.801Z,102867.25
2023-02-28T09:27:52.259Z,102867.55
2023-02-28T09:28:52.798Z,102867.44
2023-02-28T09:29:53.454Z,102867.48
2023-02-28T09:30:53.992Z,102867.38
2023-02-28T09:31:54.293Z,102866.84
2023-02-28T09:32:55.603Z,102866.55
2023-02-28T09:33:56.020Z,102866.44
2023-02-28T09:34:56.244Z,102866.53
2023-02-28T09:35:56.772Z,102866.73
2023-02-28T09:36:57.482Z,102867.38
2023-02-28T09:37:57.695Z,102867.06
2023-02-28T09:38:58.364Z,102866.59
2023-02-28T09:39:58.717Z,102866.55
2023-02-28T09:40:59.247Z,102866.41
2023-02-28T09:41:59.556Z,102865.75
2023-02-28T09:42:59.554Z,102865.83
2023-02-28T09:44:00.135Z,102866.77
2023-02-28T09:45:00.139Z,102867.08
2023-02-28T09:46:00.789Z,102867.02
2023-02-28T09:47:01.374Z,102867.12
2023-02-28T09:48:01.976Z,102866.44
2023-02-28T09:49:02.439Z,102866.02
2023-02-28T09:50:02.871Z,102865.42
2023-02-28T09:52:10.781Z,102869.88
2023-02-28T09:53:12.191Z,102860.45
2023-02-28T09:54:11.609Z,102859.94
2023-02-28T09:55:11.987Z,102860.02
2023-02-28T09:56:12.628Z,102860.17
2023-02-28T09:57:13.437Z,102859.92
2023-02-28T09:58:13.914Z,102860.02
2023-02-28T09:59:14.525Z,102860.69
2023-02-28T10:00:15.040Z,102860.72
2023-02-28T10:01:15.183Z,102860.80
2023-02-28T10:02:15.963Z,102861.19
2023-02-28T10:03:16.415Z,102861.91
2023-02-28T10:04:17.217Z,102861.70
2023-02-28T10:05:17.505Z,102861.98
2023-02-28T10:06:17.618Z,102862.23
2023-02-28T10:07:18.547Z,102862.25
2023-02-28T10:08:19.298Z,102862.12
2023-02-28T10:09:19.821Z,102862.82
2023-02-28T10:10:20.650Z,102863.70
2023-02-28T10:11:20.681Z,102864.41
2023-02-28T10:12:21.592Z,102864.96
2023-02-28T10:13:22.422Z,102865.14
2023-02-28T10:14:23.083Z,102865.50
2023-02-28T10:15:23.700Z,102865.84
2023-02-28T10:16:23.733Z,102866.47
2023-02-28T10:17:24.233Z,102867.23
2023-02-28T10:18:24.828Z,102867.77
2023-02-28T10:19:25.758Z,102868.69
2023-02-28T10:20:25.811Z,102868.53
2023-02-28T10:21:25.857Z,102868.73
2023-02-28T10:22:26.708Z,102869.02
2023-02-28T10:23:27.243Z,102868.85
2023-02-28T10:24:27.865Z,102869.53
2023-02-28T10:24:36.527Z,102882.78
2023-02-28T10:25:37.289Z,102881.53
2023-02-28T10:26:37.751Z,102880.84
2023-02-28T10:27:38.286Z,102880.31
2023-02-28T10:28:38.913Z,102879.70
2023-02-28T10:29:39.199Z,102879.11
2023-02-28T10:30:39.353Z,102878.28
2023-02-28T10:31:40.048Z,102878.13
2023-02-28T10:32:40.762Z,102878.80
2023-02-28T10:33:41.704Z,102877.70
2023-02-28T10:34:42.071Z,102877.76
2023-02-28T10:35:42.275Z,102876.75
2023-02-28T10:36:42.544Z,102876.45
2023-02-28T10:37:42.554Z,102876.41
2023-02-28T10:38:43.115Z,102876.27
2023-02-28T10:39:43.916Z,102875.64
2023-02-28T10:40:44.279Z,102875.34
2023-02-28T10:41:44.711Z,102874.89
2023-02-28T10:42:45.312Z,102873.64
2023-02-28T10:43:46.275Z,102873.36
2023-02-28T10:44:47.141Z,102872.83
2023-02-28T10:45:47.130Z,102872.09
2023-02-28T10:46:47.493Z,102871.77
2023-02-28T10:47:47.921Z,102872.10
2023-02-28T10:48:48.128Z,102872.45
2023-02-28T10:49:48.554Z,102872.58
2023-02-28T10:50:49.037Z,102873.06
2023-02-28T10:51:49.343Z,102873.46
2023-02-28T10:52:49.497Z,102873.48
2023-02-28T10:54:00.737Z,102873.91
2023-02-28T10:54:50.632Z,102874.72
2023-02-28T10:55:51.338Z,102874.37
2023-02-28T10:56:00.521Z,102879.87
2023-02-28T10:57:01.053Z,102879.16
2023-02-28T10:58:01.860Z,102879.34
2023-02-28T10:59:02.423Z,102878.52
2023-02-28T11:00:03.110Z,102877.50
2023-02-28T11:01:03.150Z,102876.67
2023-02-28T11:02:03.692Z,102876.59
2023-02-28T11:03:03.813Z,102875.20
2023-02-28T11:04:04.343Z,102874.28
2023-02-28T11:05:04.540Z,102873.61
2023-02-28T11:06:04.963Z,102873.56
2023-02-28T11:07:05.725Z,102873.44
2023-02-28T11:08:06.281Z,102873.08
2023-02-28T11:09:06.543Z,102872.66
2023-02-28T11:10:07.439Z,102871.48
2023-02-28T11:11:08.368Z,102871.45
2023-02-28T11:12:08.831Z,102870.53
2023-02-28T11:13:09.559Z,102869.34
2023-02-28T11:14:10.171Z,102868.52